Jacksonville, FL (32257)

6:20 PM EST on February 06, 2016 (GMT -0500)
Pickwick Park | | Change Station
CLOSE
Current Station
Personal Weather Station
Location: Jacksonville, FL
Elevation: 30 ft
Nearby Weather Stations

Elev 30 ft 30.21 °N, 81.62 °W | Updated 7 seconds ago

Mostly Cloudy
Mostly Cloudy
48.2 °F
Feels Like 48 °F
N
2.0
Wind Variable Wind from East
Gusts 3.0 mph

Today
High -- | Low -- °F
--% Chance of Precip.
Yesterday
High -- | Low -- °F
Precip. -- in
Pressure 30.11 in
Visibility 7.0 miles
Clouds Overcast 900 ft
Windchill 48 °F
Dew Point 29 °F
Humidity 48%
Rainfall 0.11 in
Snow Depth Not available.
7:14 AM 6:07 PM
Waning Crescent, 4% visible
METAR KNIP 062253Z 36015KT 7SM -RA OVC009 11/09 A3012 RMK AO2 SLP194 P0005 T01110094
Pressure 30.11 in
Visibility 7.0 miles
Clouds Overcast 900 ft
Windchill 48 °F
Dew Point 29 °F
Humidity 48%
Rainfall 0.11 in
Snow Depth Not available.
7:14 AM 6:07 PM
Waning Crescent, 4% visible
METAR KNIP 062253Z 36015KT 7SM -RA OVC009 11/09 A3012 RMK AO2 SLP194 P0005 T01110094

10-Day Weather Forecast

Almanac

Astronomy

Feb. 06, 2016 Rise Set
Actual Time
Civil Twilight
Nautical Twilight
Astronomical Twilight
Moon
Length of Visible Light
Length of Day
Tomorrow will be .
, % of the Moon is Illuminated

Today's Extremes

State Highs State Lows

Community

WunderPhotos

Upload Photos

1,891,092 photos uploaded!

WunderBlog® & News

Nearby

Air Quality

  Air Quality AQ Index Pollutant
Not available.

Snow Depth

Station Depth Elevation

Earthquake Activity

City Distance Mag. Time & Date
Minimum magnitude displayed is 2.5.

Coastal Water Temperatures

Place Temperature

Stations

Nearby Weather Stations

Station Location Temp. Windchill Dew Point Humidity Wind Precip. Elev Updated Type
                   

Watches & Warnings

There are currently no watches in effect.